Time;durP1;ratioP1;P1;durP2;ratioP2;P2;SDS_P1;SDS_P2;PMS_P1;PMS_P2;Temp;Humidity;BMP_temperature;BMP_pressure;BME280_temperature;BME280_humidity;BME280_pressure;Samples;Min_cycle;Max_cycle;Signal;HPM_P1;HPM_P2
2022/05/01 00:01:09;;;;;;;18.65;10.50;;;5.40;99.90;;;;;;5083356;28;20043;-77
2022/05/01 00:03:35;;;;;;;16.75;10.82;;;4.10;99.90;;;;;;5090261;28;20476;-81
2022/05/01 00:06:07;;;;;;;15.98;10.05;;;4.00;99.90;;;;;;5061090;28;20040;-79
2022/05/01 00:08:34;;;;;;;16.02;9.60;;;4.50;99.90;;;;;;5070066;28;20048;-80
2022/05/01 00:11:01;;;;;;;16.55;10.50;;;5.00;99.90;;;;;;5070606;28;20078;-80
2022/05/01 00:13:27;;;;;;;16.98;10.55;;;4.90;99.90;;;;;;5070086;28;20044;-80
2022/05/01 00:15:53;;;;;;;15.30;10.93;;;4.70;99.90;;;;;;5070355;28;20494;-81
2022/05/01 00:18:20;;;;;;;14.20;9.30;;;5.20;99.90;;;;;;5068927;28;20072;-81
2022/05/01 00:20:46;;;;;;;17.05;11.10;;;3.80;99.90;;;;;;5069994;28;20094;-80
2022/05/01 00:23:13;;;;;;;15.85;10.48;;;4.70;99.90;;;;;;5069862;28;20040;-81
2022/05/01 00:25:41;;;;;;;16.77;9.85;;;4.60;99.90;;;;;;5068147;28;20488;-81
2022/05/01 00:28:10;;;;;;;13.48;9.75;;;4.40;99.90;;;;;;5070352;28;20047;-81
2022/05/01 00:30:36;;;;;;;13.55;9.68;;;5.00;99.90;;;;;;5069818;28;20127;-81
2022/05/01 00:38:31;;;;;;;16.60;9.65;;;5.00;99.90;;;;;;5069265;28;20063;-81
2022/05/01 00:40:57;;;;;;;15.30;9.35;;;3.70;99.90;;;;;;5069698;28;20080;-80
2022/05/01 00:43:23;;;;;;;15.40;9.88;;;3.50;99.90;;;;;;5069078;28;20044;-81
2022/05/01 00:45:49;;;;;;;14.10;9.75;;;4.70;99.90;;;;;;5069984;28;20333;-80
2022/05/01 00:48:15;;;;;;;12.57;8.80;;;3.50;99.90;;;;;;5069869;28;20082;-81
2022/05/01 00:50:43;;;;;;;14.32;10.35;;;3.60;99.90;;;;;;5069130;28;20499;-81
2022/05/01 00:53:09;;;;;;;15.82;9.82;;;3.50;99.90;;;;;;5069409;28;20044;-81
2022/05/01 00:55:38;;;;;;;14.88;10.02;;;4.80;99.90;;;;;;5069046;28;20037;-80
2022/05/01 00:58:06;;;;;;;20.58;12.98;;;4.80;99.90;;;;;;5070116;28;20040;-81
2022/05/01 01:00:36;;;;;;;16.75;11.05;;;3.50;99.90;;;;;;5070044;28;20048;-81
2022/05/01 01:03:02;;;;;;;19.02;9.73;;;3.50;99.90;;;;;;5070154;28;20048;-80
2022/05/01 01:05:28;;;;;;;15.60;10.52;;;3.50;99.90;;;;;;5069095;28;20052;-80
2022/05/01 01:07:54;;;;;;;16.90;10.15;;;3.70;99.90;;;;;;5069138;28;20036;-80
2022/05/01 01:10:20;;;;;;;17.20;10.95;;;3.30;99.90;;;;;;5068744;28;20052;-80
2022/05/01 01:12:56;;;;;;;21.38;11.48;;;4.40;99.90;;;;;;5068671;28;20040;-80
2022/05/01 01:15:29;;;;;;;17.65;11.10;;;3.30;99.90;;;;;;5069522;28;20475;-81
2022/05/01 01:17:56;;;;;;;15.60;11.27;;;4.70;99.90;;;;;;5069089;28;20045;-80
2022/05/01 01:20:25;;;;;;;16.02;11.15;;;4.50;99.90;;;;;;5069732;28;20122;-80
2022/05/01 01:22:54;;;;;;;19.88;11.55;;;3.40;99.90;;;;;;5070509;28;20037;-80
2022/05/01 01:25:24;;;;;;;23.75;11.68;;;3.40;99.90;;;;;;5072372;28;20040;-81
2022/05/01 01:27:51;;;;;;;20.48;11.57;;;3.40;99.90;;;;;;5074826;28;20044;-80
2022/05/01 01:33:03;;;;;;;14.65;10.05;;;3.30;99.90;;;;;;5082178;28;20094;-81
2022/05/01 01:35:29;;;;;;;16.42;10.38;;;4.50;99.90;;;;;;5069396;28;20499;-81
2022/05/01 01:37:56;;;;;;;20.50;11.05;;;3.30;99.90;;;;;;5068519;28;20041;-81
2022/05/01 01:40:31;;;;;;;16.20;9.75;;;4.50;99.90;;;;;;5069116;28;20102;-81
2022/05/01 01:42:58;;;;;;;13.25;10.30;;;3.90;99.90;;;;;;5066686;28;20122;-81
2022/05/01 01:45:28;;;;;;;13.55;10.35;;;3.30;99.90;;;;;;5051341;28;20079;-80
2022/05/01 01:48:17;;;;;;;14.40;9.13;;;3.20;99.90;;;;;;5068544;28;20059;-81
2022/05/01 01:50:53;;;;;;;13.57;9.15;;;3.30;99.90;;;;;;5066661;28;20056;-79
2022/05/01 01:53:19;;;;;;;16.27;9.32;;;4.30;99.90;;;;;;5068460;28;20053;-79
2022/05/01 01:55:44;;;;;;;11.38;8.30;;;4.50;99.90;;;;;;5068117;28;20041;-80
2022/05/01 01:58:10;;;;;;;11.68;7.40;;;4.50;99.90;;;;;;5068614;28;20040;-80
2022/05/01 02:00:36;;;;;;;11.18;7.05;;;4.30;99.90;;;;;;5067719;28;20044;-80
2022/05/01 02:03:04;;;;;;;9.05;7.05;;;3.20;99.90;;;;;;5066768;28;20041;-80
2022/05/01 02:05:30;;;;;;;7.25;5.50;;;3.20;99.90;;;;;;5067838;28;20055;-80
2022/05/01 02:07:57;;;;;;;6.63;5.38;;;4.10;99.90;;;;;;5068293;28;20442;-81
2022/05/01 02:10:23;;;;;;;7.10;5.50;;;4.10;99.90;;;;;;5066644;28;20053;-81
2022/05/01 02:12:49;;;;;;;8.38;5.43;;;4.10;99.90;;;;;;5067720;28;20044;-81
2022/05/01 02:15:15;;;;;;;7.10;4.85;;;3.20;99.90;;;;;;5068177;28;20058;-81
2022/05/01 02:17:42;;;;;;;6.28;4.75;;;3.60;99.90;;;;;;5067488;28;20131;-81
2022/05/01 02:20:08;;;;;;;6.30;4.63;;;3.20;99.90;;;;;;5068311;28;20044;-81
2022/05/01 02:22:35;;;;;;;6.57;4.50;;;3.10;99.90;;;;;;5066497;28;20047;-82
2022/05/01 02:25:04;;;;;;;6.15;4.75;;;4.00;99.90;;;;;;5068000;28;20040;-81
2022/05/01 02:27:30;;;;;;;5.90;4.65;;;3.10;99.90;;;;;;5052236;28;20127;-81
2022/05/01 02:29:56;;;;;;;5.57;4.32;;;4.10;99.90;;;;;;5076034;28;20048;-80
2022/05/01 02:32:21;;;;;;;4.63;3.53;;;3.90;99.90;;;;;;5074516;28;20394;-79
2022/05/01 02:34:47;;;;;;;5.10;3.97;;;2.90;99.90;;;;;;5067955;28;20412;-80
2022/05/01 02:37:13;;;;;;;4.72;3.45;;;4.00;99.90;;;;;;5068617;28;20048;-80
2022/05/01 02:39:38;;;;;;;4.07;3.13;;;3.30;99.90;;;;;;5068486;28;20040;-80
2022/05/01 02:42:04;;;;;;;3.92;3.22;;;3.20;99.90;;;;;;5068794;28;20041;-81
2022/05/01 02:44:30;;;;;;;5.10;3.80;;;2.80;99.90;;;;;;5068425;28;20036;-80
2022/05/01 02:46:57;;;;;;;7.60;3.90;;;3.20;99.90;;;;;;5066839;28;20492;-80
2022/05/01 02:49:22;;;;;;;4.07;3.33;;;1.80;99.90;;;;;;5069820;28;20118;-80
2022/05/01 02:51:49;;;;;;;5.18;3.70;;;4.10;99.90;;;;;;5071925;28;20053;-80
2022/05/01 02:54:15;;;;;;;4.68;3.00;;;3.80;99.90;;;;;;5075864;28;20068;-80
2022/05/01 02:56:40;;;;;;;4.80;3.03;;;2.50;99.90;;;;;;5089731;28;20048;-79
2022/05/01 02:59:09;;;;;;;4.32;3.60;;;2.60;99.90;;;;;;5086429;28;20037;-81
2022/05/01 03:01:38;;;;;;;4.35;3.15;;;2.60;99.90;;;;;;5067729;28;20407;-80
2022/05/01 03:04:04;;;;;;;3.33;2.80;;;2.60;99.90;;;;;;5067944;28;20064;-80
2022/05/01 03:06:32;;;;;;;4.60;3.22;;;4.00;99.90;;;;;;5066483;28;20048;-81
2022/05/01 03:08:58;;;;;;;4.90;3.40;;;4.00;99.90;;;;;;5066654;28;20037;-81
2022/05/01 03:11:23;;;;;;;5.65;3.72;;;3.70;99.90;;;;;;5067736;28;20036;-80
2022/05/01 03:13:49;;;;;;;4.25;3.25;;;3.40;99.90;;;;;;5067363;28;20041;-80
2022/05/01 03:16:15;;;;;;;4.00;3.20;;;3.70;99.90;;;;;;5067575;28;20083;-81
2022/05/01 03:24:09;;;;;;;5.22;3.83;;;3.70;99.90;;;;;;5067546;28;20048;-80
2022/05/01 03:26:35;;;;;;;11.32;4.13;;;2.20;99.90;;;;;;5066783;28;20041;-79
2022/05/01 03:29:01;;;;;;;6.57;3.85;;;2.30;99.90;;;;;;5065890;28;20352;-80
2022/05/01 03:31:27;;;;;;;4.70;3.58;;;2.20;99.90;;;;;;5067171;28;20105;-80
2022/05/01 03:33:54;;;;;;;5.85;4.28;;;1.20;99.90;;;;;;5065835;28;20112;-80
2022/05/01 03:36:21;;;;;;;7.15;4.97;;;2.20;99.90;;;;;;5066749;28;20041;-80
2022/05/01 03:38:47;;;;;;;6.55;4.95;;;1.20;99.90;;;;;;5066450;28;20484;-81
2022/05/01 03:41:15;;;;;;;10.13;5.78;;;2.20;99.90;;;;;;5067512;28;20044;-81
2022/05/01 03:43:41;;;;;;;6.68;5.25;;;2.20;99.90;;;;;;5066978;28;20707;-81
2022/05/01 03:46:07;;;;;;;8.55;5.75;;;2.50;99.90;;;;;;5067506;28;20068;-81
2022/05/01 03:48:33;;;;;;;6.95;5.15;;;3.30;99.90;;;;;;5065843;28;20086;-81
2022/05/01 03:50:59;;;;;;;6.68;4.82;;;3.50;99.90;;;;;;5066990;28;20075;-81
2022/05/01 03:53:25;;;;;;;11.30;6.25;;;2.50;99.90;;;;;;5065191;28;20048;-81
2022/05/01 03:55:52;;;;;;;7.85;5.93;;;1.90;99.90;;;;;;5066379;28;20048;-82
2022/05/01 03:58:19;;;;;;;8.00;5.63;;;2.00;99.90;;;;;;5074635;28;20056;-82
2022/05/01 04:00:47;;;;;;;9.48;6.03;;;3.00;99.90;;;;;;5079604;28;20403;-81
2022/05/01 04:03:19;;;;;;;11.27;6.60;;;3.00;99.90;;;;;;5072122;28;20076;-81
2022/05/01 04:05:45;;;;;;;10.27;6.60;;;2.00;99.90;;;;;;5069881;28;20174;-80
2022/05/01 04:08:11;;;;;;;10.65;7.03;;;3.30;99.90;;;;;;5071609;28;20052;-80
2022/05/01 04:10:42;;;;;;;10.52;7.45;;;3.30;99.90;;;;;;5070428;28;20186;-79
2022/05/01 04:13:09;;;;;;;11.38;7.95;;;3.00;99.90;;;;;;5071932;28;20037;-80
2022/05/01 04:15:36;;;;;;;12.63;7.85;;;2.30;99.90;;;;;;5072621;28;20052;-80
2022/05/01 04:18:03;;;;;;;10.73;8.07;;;2.50;99.90;;;;;;5075129;28;20070;-80
2022/05/01 04:20:30;;;;;;;11.88;7.68;;;2.10;99.90;;;;;;5078585;28;20044;-80
2022/05/01 04:22:56;;;;;;;12.88;8.35;;;2.00;99.90;;;;;;5091060;28;20033;-80
2022/05/01 04:25:29;;;;;;;13.35;8.07;;;3.30;99.90;;;;;;5088501;28;20044;-80
2022/05/01 04:28:04;;;;;;;;;;;3.50;99.90;;;;;;5069774;28;20059;-81
2022/05/01 04:30:31;;;;;;;12.70;7.80;;;2.30;99.90;;;;;;5070693;28;19920;-81
2022/05/01 04:32:58;;;;;;;11.02;7.60;;;3.30;99.90;;;;;;5070355;28;20044;-81
2022/05/01 04:35:44;;;;;;;12.20;8.20;;;3.50;99.90;;;;;;5069656;28;20099;-81
2022/05/01 04:38:21;;;;;;;12.80;7.60;;;2.30;99.90;;;;;;5070294;28;20044;-81
2022/05/01 04:40:52;;;;;;;12.75;8.73;;;2.40;99.90;;;;;;5070021;28;20048;-81
2022/05/01 04:43:20;;;;;;;15.85;8.60;;;2.50;99.90;;;;;;5068318;28;20496;-81
2022/05/01 04:45:48;;;;;;;9.52;6.95;;;3.70;99.90;;;;;;5070434;28;20051;-81
2022/05/01 04:48:15;;;;;;;13.10;8.65;;;4.10;99.90;;;;;;5069369;28;20586;-81
2022/05/01 04:50:44;;;;;;;12.95;9.10;;;2.70;99.90;;;;;;5069687;28;20048;-81
2022/05/01 04:53:11;;;;;;;10.75;7.68;;;3.70;99.90;;;;;;5069513;28;20416;-81
2022/05/01 04:55:42;;;;;;;12.68;9.40;;;3.90;99.90;;;;;;5069614;28;20040;-81
2022/05/01 04:58:09;;;;;;;14.15;9.27;;;4.20;99.90;;;;;;5069655;28;20036;-80
2022/05/01 05:00:35;;;;;;;15.85;10.00;;;3.80;99.90;;;;;;5069126;28;20048;-80
2022/05/01 05:03:02;;;;;;;12.43;8.52;;;4.30;99.90;;;;;;5070275;28;20036;-80
2022/05/01 05:05:31;;;;;;;15.18;9.02;;;3.20;99.90;;;;;;5068915;28;20036;-80
2022/05/01 05:09:53;;;;;;;10.80;7.53;;;4.60;99.90;;;;;;5069085;28;20048;-80
2022/05/01 05:10:46;;;;;;;8.05;6.10;;;3.40;99.90;;;;;;5069295;28;20048;-79
2022/05/01 05:13:17;;;;;;;7.95;6.63;;;3.50;99.90;;;;;;5067376;28;20123;-80
2022/05/01 05:15:43;;;;;;;10.32;6.22;;;4.90;99.90;;;;;;5069968;28;20086;-81
2022/05/01 05:18:08;;;;;;;8.80;7.32;;;4.60;99.90;;;;;;5068875;28;20048;-81
2022/05/01 05:20:34;;;;;;;8.73;6.82;;;3.90;99.90;;;;;;5068177;28;20054;-81
2022/05/01 05:23:00;;;;;;;7.18;6.20;;;4.00;99.90;;;;;;5068701;28;20048;-80
2022/05/01 05:25:27;;;;;;;8.23;6.43;;;4.10;99.90;;;;;;5069321;28;20040;-80
2022/05/01 05:27:53;;;;;;;11.15;7.70;;;4.20;99.90;;;;;;5072433;28;20130;-80
2022/05/01 05:30:18;;;;;;;9.57;6.55;;;4.30;99.90;;;;;;5075692;28;20045;-80
2022/05/01 05:32:44;;;;;;;8.10;6.15;;;4.50;99.90;;;;;;5075092;28;20072;-80
2022/05/01 05:35:10;;;;;;;8.98;7.03;;;5.60;99.90;;;;;;5069193;28;20052;-81
2022/05/01 05:37:36;;;;;;;11.38;7.43;;;4.70;99.90;;;;;;5069705;28;20504;-81
2022/05/01 05:40:02;;;;;;;8.98;7.38;;;4.80;99.90;;;;;;5068938;28;20044;-80
2022/05/01 05:42:29;;;;;;;8.85;6.38;;;4.90;99.90;;;;;;5069644;28;20050;-79
2022/05/01 05:44:55;;;;;;;9.02;7.18;;;5.00;99.90;;;;;;5071320;28;20060;-79
2022/05/01 05:47:20;;;;;;;10.05;6.95;;;5.10;99.90;;;;;;5072223;28;20036;-79
2022/05/01 05:49:47;;;;;;;8.68;6.85;;;5.20;99.90;;;;;;5079024;28;20103;-78
2022/05/01 05:52:13;;;;;;;11.85;7.07;;;5.30;99.90;;;;;;5077528;28;20071;-80
2022/05/01 05:54:39;;;;;;;13.70;7.10;;;6.70;99.90;;;;;;5068514;28;20095;-78
2022/05/01 05:57:05;;;;;;;12.15;7.53;;;6.80;99.90;;;;;;5068341;28;20459;-81
2022/05/01 05:59:30;;;;;;;10.35;7.20;;;5.80;99.90;;;;;;5068703;28;20075;-81
2022/05/01 06:01:56;;;;;;;8.10;6.53;;;6.10;99.90;;;;;;5066792;28;20081;-80
2022/05/01 06:04:22;;;;;;;8.55;6.20;;;7.20;99.90;;;;;;5067881;28;20518;-84
2022/05/01 06:06:48;;;;;;;9.73;6.72;;;6.30;99.90;;;;;;5050752;28;20052;-79
2022/05/01 06:09:13;;;;;;;11.75;7.25;;;7.00;99.90;;;;;;5066220;28;20045;-80
2022/05/01 06:11:39;;;;;;;10.65;6.15;;;6.50;99.90;;;;;;5067573;28;20037;-83
2022/05/01 06:14:05;;;;;;;8.75;6.13;;;6.50;99.90;;;;;;5067947;28;20052;-85
2022/05/01 06:16:32;;;;;;;8.32;5.63;;;6.60;99.90;;;;;;5066735;28;20048;-86
2022/05/01 06:18:59;;;;;;;9.05;6.50;;;6.70;99.90;;;;;;5049748;28;20036;-84
2022/05/01 06:21:26;;;;;;;11.52;6.70;;;6.80;99.90;;;;;;5049511;28;20040;-85
2022/05/01 06:23:52;;;;;;;12.73;6.07;;;8.10;99.90;;;;;;5050538;28;20076;-85
2022/05/01 06:26:18;;;;;;;7.97;5.97;;;8.20;99.90;;;;;;5017302;28;20121;-86
2022/05/01 06:28:43;;;;;;;7.13;5.78;;;7.20;99.90;;;;;;5051040;28;20408;-85
2022/05/01 06:31:09;;;;;;;7.80;5.65;;;7.30;99.90;;;;;;5066686;28;20040;-85
2022/05/01 06:33:36;;;;;;;11.52;6.05;;;7.50;99.90;;;;;;5067009;28;20045;-85
2022/05/01 06:36:03;;;;;;;6.57;5.15;;;7.60;99.90;;;;;;5050265;28;20044;-83
2022/05/01 06:38:29;;;;;;;7.25;5.35;;;7.70;99.90;;;;;;5067875;28;20244;-83
2022/05/01 06:40:55;;;;;;;10.88;4.65;;;7.90;99.90;;;;;;5068539;28;20432;-84
2022/05/01 06:43:21;;;;;;;8.85;5.03;;;8.40;99.90;;;;;;5068123;28;20403;-83
2022/05/01 06:45:48;;;;;;;7.55;4.30;;;8.20;99.90;;;;;;5070179;28;20090;-84
2022/05/01 06:48:14;;;;;;;8.27;4.57;;;8.40;99.90;;;;;;5067569;28;20032;-82
2022/05/01 06:50:40;;;;;;;5.45;4.53;;;9.10;99.90;;;;;;5066578;28;20500;-82
2022/05/01 06:53:07;;;;;;;5.38;4.50;;;9.90;99.90;;;;;;5066809;28;20479;-79
2022/05/01 06:55:34;;;;;;;5.40;4.45;;;8.90;99.90;;;;;;5066889;28;20072;-82
2022/05/01 06:58:00;;;;;;;6.15;4.60;;;9.10;99.90;;;;;;5068590;28;20048;-81
2022/05/01 07:00:26;;;;;;;7.97;4.97;;;9.30;99.90;;;;;;5067586;28;20518;-80
2022/05/01 07:02:53;;;;;;;4.90;4.20;;;9.70;99.90;;;;;;5069156;28;20083;-80
2022/05/01 07:05:20;;;;;;;5.53;3.67;;;9.60;99.90;;;;;;5067978;28;20056;-81
2022/05/01 07:07:46;;;;;;;5.80;3.72;;;9.80;99.90;;;;;;5067970;28;20063;-81
2022/05/01 07:10:12;;;;;;;7.50;4.50;;;9.90;99.90;;;;;;5067603;28;20124;-81
2022/05/01 07:12:38;;;;;;;4.75;2.47;;;11.10;99.90;;;;;;5051940;28;20086;-80
2022/05/01 07:15:05;;;;;;;9.82;3.58;;;10.20;99.90;;;;;;5073903;28;20049;-79
2022/05/01 07:17:32;;;;;;;5.35;3.22;;;10.30;99.90;;;;;;5078904;28;20044;-79
2022/05/01 07:19:58;;;;;;;5.80;3.67;;;10.40;99.90;;;;;;5067886;28;20036;-80
2022/05/01 07:22:24;;;;;;;10.77;4.35;;;11.70;99.90;;;;;;5080195;28;20040;-80
2022/05/01 07:24:50;;;;;;;9.40;4.53;;;10.70;99.90;;;;;;5035822;28;20052;-81
2022/05/01 07:27:15;;;;;;;4.63;3.33;;;10.80;99.90;;;;;;5068792;28;20056;-79
2022/05/01 07:29:41;;;;;;;6.72;2.85;;;12.00;99.90;;;;;;5050253;28;20107;-81
2022/05/01 07:32:07;;;;;;;4.93;2.67;;;11.70;99.90;;;;;;5069542;28;20044;-81
2022/05/01 07:34:33;;;;;;;3.47;2.97;;;11.30;99.90;;;;;;5071567;28;20056;-80
2022/05/01 07:36:59;;;;;;;5.10;3.10;;;11.40;99.90;;;;;;5072038;28;20052;-80
2022/05/01 07:39:25;;;;;;;4.65;3.25;;;11.50;99.90;;;;;;5070089;28;20052;-80
2022/05/01 07:41:51;;;;;;;4.97;3.00;;;11.60;99.90;;;;;;5073600;28;20497;-80
2022/05/01 07:44:16;;;;;;;4.40;2.30;;;11.50;99.90;;;;;;5070828;28;20033;-80
2022/05/01 07:46:43;;;;;;;5.93;2.00;;;11.50;99.90;;;;;;5072374;28;20044;-84
2022/05/01 07:49:10;;;;;;;5.05;2.60;;;11.50;99.90;;;;;;5073977;28;20419;-83
2022/05/01 07:51:36;;;;;;;3.85;2.65;;;11.40;99.90;;;;;;5073057;28;20045;-84
2022/05/01 07:54:06;;;;;;;4.90;2.92;;;11.80;99.90;;;;;;5075453;28;20047;-84
2022/05/01 07:56:33;;;;;;;8.65;3.30;;;11.50;99.90;;;;;;5055329;28;20044;-86
2022/05/01 07:58:59;;;;;;;3.95;3.10;;;11.60;99.90;;;;;;5056407;28;20056;-84
2022/05/01 08:01:25;;;;;;;5.72;2.95;;;11.80;99.90;;;;;;5071916;28;20095;-84
2022/05/01 08:06:37;;;;;;;4.07;2.55;;;11.90;99.90;;;;;;5073190;28;20056;-85
2022/05/01 08:09:03;;;;;;;4.35;2.67;;;11.90;99.90;;;;;;5072311;28;20051;-86
2022/05/01 08:11:30;;;;;;;5.57;3.03;;;11.20;99.90;;;;;;5056742;28;20691;-83
2022/05/01 08:13:55;;;;;;;4.93;2.88;;;11.90;99.90;;;;;;5073297;28;20092;-85
2022/05/01 08:16:21;;;;;;;4.72;3.17;;;11.90;99.90;;;;;;5055869;28;20484;-84
2022/05/01 08:21:32;;;;;;;5.82;2.03;;;12.10;99.90;;;;;;5072250;28;20056;-86
2022/05/01 08:24:02;;;;;;;3.30;1.90;;;12.40;99.90;;;;;;5056990;28;20056;-86
2022/05/01 08:26:31;;;;;;;4.45;2.58;;;12.90;99.90;;;;;;5072730;28;20036;-85
2022/05/01 08:28:57;;;;;;;3.75;2.00;;;13.30;99.90;;;;;;5073838;28;20344;-85
2022/05/01 08:31:23;;;;;;;2.72;1.88;;;13.60;99.90;;;;;;5056059;28;20612;-85
2022/05/01 08:33:49;;;;;;;3.83;2.35;;;13.80;99.90;;;;;;5057583;28;20052;-91
2022/05/01 08:36:15;;;;;;;4.03;2.58;;;14.00;99.90;;;;;;5057416;28;20400;-84
2022/05/01 08:38:42;;;;;;;4.15;2.50;;;14.20;99.90;;;;;;5073835;28;20488;-84
2022/05/01 08:41:09;;;;;;;5.32;2.45;;;14.30;99.90;;;;;;5040465;28;20044;-82
2022/05/01 08:43:36;;;;;;;5.93;2.35;;;14.50;99.90;;;;;;5070239;28;20083;-82
2022/05/01 08:46:27;;;;;;;3.28;2.58;;;14.50;99.90;;;;;;5073584;28;20102;-82
2022/05/01 08:49:01;;;;;;;5.30;2.67;;;14.70;99.90;;;;;;5077662;28;20061;-81
2022/05/01 08:51:35;;;;;;;4.22;2.28;;;15.00;99.90;;;;;;5085708;28;20059;-82
2022/05/01 08:54:09;;;;;;;2.97;2.13;;;15.30;99.90;;;;;;5090534;28;20037;-83
2022/05/01 08:56:37;;;;;;;3.28;2.20;;;15.20;99.90;;;;;;5084857;28;20076;-82
2022/05/01 08:59:09;;;;;;;3.38;2.30;;;15.00;99.90;;;;;;5074191;28;20095;-81
2022/05/01 09:01:36;;;;;;;3.00;2.70;;;14.80;99.90;;;;;;5070078;28;20051;-80
2022/05/01 09:04:02;;;;;;;3.58;2.25;;;14.70;99.90;;;;;;5071121;28;20044;-81
2022/05/01 09:06:28;;;;;;;3.05;2.58;;;14.60;99.90;;;;;;5069801;28;20058;-81
2022/05/01 09:08:56;;;;;;;4.75;2.03;;;15.30;99.90;;;;;;5068919;28;20044;-82
2022/05/01 09:14:07;;;;;;;7.15;2.33;;;14.70;99.90;;;;;;5069049;28;20540;-80
2022/05/01 09:16:36;;;;;;;4.75;2.25;;;14.70;99.90;;;;;;5069907;28;20123;-78
2022/05/01 09:19:02;;;;;;;3.80;2.30;;;14.50;99.90;;;;;;5069614;28;20052;-80
2022/05/01 09:21:50;;;;;;;2.70;2.10;;;14.30;99.90;;;;;;5069204;28;20048;-79
2022/05/01 09:24:26;;;;;;;5.03;2.20;;;14.20;99.90;;;;;;5069727;28;20036;-79
2022/05/01 09:26:52;;;;;;;5.65;2.35;;;14.00;99.90;;;;;;5067214;28;20048;-80
2022/05/01 09:29:26;;;;;;;4.43;2.38;;;14.60;99.90;;;;;;5069634;28;20045;-78
2022/05/01 09:31:55;;;;;;;3.88;2.47;;;14.00;99.90;;;;;;5069207;28;20396;-80
2022/05/01 09:34:23;;;;;;;3.33;2.22;;;13.90;99.90;;;;;;5068694;28;20044;-80
2022/05/01 09:36:50;;;;;;;3.63;2.67;;;14.30;99.90;;;;;;5069841;28;20045;-79
2022/05/01 09:39:32;;;;;;;5.03;2.22;;;14.00;99.90;;;;;;5068075;28;20041;-80
2022/05/01 09:42:16;;;;;;;4.43;2.45;;;14.20;98.50;;;;;;5067511;28;20533;-81
2022/05/01 09:44:43;;;;;;;2.88;1.80;;;14.10;99.00;;;;;;5069075;28;20074;-81
2022/05/01 09:47:08;;;;;;;2.67;1.98;;;14.20;99.90;;;;;;5066899;28;20499;-79
2022/05/01 09:50:01;;;;;;;3.85;2.00;;;14.30;99.90;;;;;;5069112;28;20048;-80
2022/05/01 09:52:57;;;;;;;4.40;2.47;;;14.30;97.70;;;;;;5067777;28;20454;-80
2022/05/01 09:55:24;;;;;;;5.95;2.92;;;14.30;97.20;;;;;;5068638;28;20040;-81
2022/05/01 09:58:01;;;;;;;3.50;2.20;;;14.30;99.90;;;;;;5068732;28;20052;-80
2022/05/01 10:00:35;;;;;;;4.68;2.47;;;15.10;99.90;;;;;;5066838;28;20033;-80
2022/05/01 10:03:21;;;;;;;2.85;1.98;;;14.50;99.20;;;;;;5067554;28;20044;-80
2022/05/01 10:05:49;;;;;;;3.88;2.47;;;14.60;97.40;;;;;;5067472;28;20045;-81
2022/05/01 10:08:17;;;;;;;2.17;1.77;;;14.70;98.90;;;;;;5068815;28;20068;-80
2022/05/01 10:10:45;;;;;;;5.82;2.08;;;14.80;98.50;;;;;;5067991;28;20363;-80
2022/05/01 10:13:13;;;;;;;2.83;2.00;;;14.80;97.40;;;;;;5068540;28;20036;-80
2022/05/01 10:15:39;;;;;;;3.95;2.20;;;14.80;97.30;;;;;;5069556;28;20041;-80
2022/05/01 10:18:05;;;;;;;4.40;2.70;;;14.90;97.10;;;;;;5068950;28;20047;-80
2022/05/01 10:20:33;;;;;;;4.68;2.33;;;15.00;96.30;;;;;;5069610;28;20123;-81
2022/05/01 10:23:01;;;;;;;4.22;2.17;;;15.00;95.30;;;;;;5068410;28;20507;-80
2022/05/01 10:25:37;;;;;;;2.63;1.92;;;15.10;94.60;;;;;;5071494;28;20127;-80
2022/05/01 10:28:38;;;;;;;2.53;1.77;;;15.10;93.70;;;;;;5075978;28;20047;-80
2022/05/01 10:34:40;;;;;;;3.35;2.00;;;15.20;91.50;;;;;;5085149;28;20045;-80
2022/05/01 10:37:31;;;;;;;4.60;2.08;;;15.30;90.00;;;;;;5072210;28;20485;-80
2022/05/01 10:39:58;;;;;;;7.97;2.60;;;15.30;86.80;;;;;;5068258;28;20123;-81
2022/05/01 10:42:46;;;;;;;3.67;2.00;;;15.10;91.10;;;;;;5067468;28;20126;-81
2022/05/01 10:45:26;;;;;;;3.45;1.88;;;15.10;88.60;;;;;;5068924;28;20119;-79
2022/05/01 10:47:54;;;;;;;3.80;1.83;;;15.10;88.40;;;;;;5067761;28;20218;-79
2022/05/01 10:50:24;;;;;;;2.33;1.85;;;15.10;90.90;;;;;;5067953;28;20442;-80
2022/05/01 10:53:13;;;;;;;2.22;1.65;;;15.10;86.50;;;;;;5067191;28;20037;-81
2022/05/01 10:56:14;;;;;;;3.15;1.90;;;15.10;80.90;;;;;;5067543;28;20136;-80
2022/05/01 10:58:40;;;;;;;3.55;1.92;;;15.10;85.60;;;;;;5068165;28;20404;-80
2022/05/01 11:01:06;;;;;;;3.25;1.83;;;15.20;84.70;;;;;;5067471;28;20044;-80
2022/05/01 11:03:32;;;;;;;2.85;1.77;;;15.40;86.10;;;;;;5067571;28;20044;-80
2022/05/01 11:06:04;;;;;;;3.30;1.90;;;15.60;82.90;;;;;;5050824;28;20048;-80
2022/05/01 11:08:33;;;;;;;5.60;1.63;;;15.90;76.60;;;;;;5071372;28;20052;-80
2022/05/01 11:11:00;;;;;;;2.97;1.95;;;16.00;77.50;;;;;;5071162;28;20091;-81
2022/05/01 11:13:38;;;;;;;4.22;1.98;;;16.20;77.60;;;;;;5069293;28;20045;-80
2022/05/01 11:16:08;;;;;;;2.28;1.73;;;16.50;74.80;;;;;;5070498;28;20377;-80
2022/05/01 11:18:34;;;;;;;4.70;1.90;;;16.70;77.60;;;;;;5071020;28;20040;-80
2022/05/01 11:21:19;;;;;;;3.92;2.22;;;16.60;77.40;;;;;;5071023;28;20512;-80
2022/05/01 11:23:46;;;;;;;3.65;2.33;;;16.50;72.60;;;;;;5072171;28;20048;-81
2022/05/01 11:26:17;;;;;;;3.38;2.10;;;16.60;78.40;;;;;;5070759;28;20054;-81
2022/05/01 11:29:06;;;;;;;2.60;1.75;;;16.70;75.70;;;;;;5053706;28;20048;-81
2022/05/01 11:31:38;;;;;;;2.95;2.10;;;16.60;72.30;;;;;;5069869;28;20483;-80
2022/05/01 11:34:16;;;;;;;2.95;2.00;;;16.40;73.50;;;;;;5070999;28;20048;-80
2022/05/01 11:36:57;;;;;;;2.55;1.90;;;16.30;70.70;;;;;;5072382;28;20048;-80
2022/05/01 11:39:45;;;;;;;3.20;2.10;;;16.20;73.40;;;;;;5069117;28;20053;-79
2022/05/01 11:42:26;;;;;;;3.83;1.90;;;16.30;71.40;;;;;;5071509;28;20365;-80
2022/05/01 11:44:52;;;;;;;3.80;2.20;;;16.30;72.90;;;;;;5072126;28;20533;-80
2022/05/01 11:47:23;;;;;;;4.07;1.80;;;16.20;75.80;;;;;;5069286;28;20045;-81
2022/05/01 11:49:50;;;;;;;2.42;1.65;;;16.20;73.40;;;;;;5071493;28;20060;-80
2022/05/01 11:52:16;;;;;;;2.67;2.08;;;16.10;73.90;;;;;;5069239;28;20055;-80
2022/05/01 11:55:06;;;;;;;4.50;1.75;;;16.10;74.30;;;;;;5071072;28;20047;-80
2022/05/01 12:03:04;;;;;;;4.65;2.25;;;16.80;74.70;;;;;;5070432;28;20059;-79
2022/05/01 12:05:45;;;;;;;2.47;2.13;;;16.10;74.60;;;;;;5074011;28;20044;-79
2022/05/01 12:08:12;;;;;;;2.28;1.75;;;15.90;72.10;;;;;;5082628;28;20067;-79
2022/05/01 12:10:43;;;;;;;6.47;2.28;;;15.80;74.70;;;;;;5080387;28;20106;-80
2022/05/01 12:13:23;;;;;;;2.80;2.10;;;15.70;77.20;;;;;;5070046;28;20059;-80
2022/05/01 12:15:51;;;;;;;4.05;2.10;;;15.60;77.20;;;;;;5070548;28;20060;-80
2022/05/01 12:18:18;;;;;;;5.00;2.08;;;15.70;79.80;;;;;;5067198;28;20037;-80
2022/05/01 12:20:44;;;;;;;4.18;2.47;;;15.70;80.10;;;;;;5035353;28;20036;-79
2022/05/01 12:23:20;;;;;;;2.50;2.05;;;15.80;80.30;;;;;;5070472;28;20048;-80
2022/05/01 12:25:50;;;;;;;3.65;2.35;;;15.80;79.90;;;;;;5069136;28;20044;-80
2022/05/01 12:28:18;;;;;;;3.97;2.08;;;15.80;81.60;;;;;;5070574;28;20041;-80
2022/05/01 12:30:56;;;;;;;2.78;1.80;;;15.70;81.70;;;;;;5066342;28;20045;-80
2022/05/01 12:33:26;;;;;;;3.78;2.13;;;15.60;82.30;;;;;;5069297;28;20040;-80
2022/05/01 12:36:00;;;;;;;3.63;1.90;;;15.50;82.90;;;;;;5069321;28;20063;-80
2022/05/01 12:38:30;;;;;;;3.92;2.08;;;15.50;82.40;;;;;;5068425;28;20174;-80
2022/05/01 12:44:00;;;;;;;4.10;2.22;;;15.70;85.40;;;;;;5066448;28;20086;-80
2022/05/01 12:46:30;;;;;;;3.22;2.13;;;15.90;84.20;;;;;;5067218;28;20048;-79
2022/05/01 12:49:02;;;;;;;3.13;2.08;;;16.20;82.50;;;;;;5068689;28;20052;-79
2022/05/01 12:51:43;;;;;;;4.73;2.13;;;16.40;81.90;;;;;;5067451;28;20051;-80
2022/05/01 12:54:19;;;;;;;3.35;2.00;;;16.60;75.70;;;;;;5069873;28;20526;-80
2022/05/01 12:56:45;;;;;;;3.55;1.75;;;16.60;75.80;;;;;;5067965;28;20098;-80
2022/05/01 12:59:30;;;;;;;3.03;1.95;;;16.60;74.30;;;;;;5068516;28;20039;-80
2022/05/01 13:01:57;;;;;;;2.97;1.80;;;16.50;73.00;;;;;;5067940;28;20051;-80
2022/05/01 13:04:24;;;;;;;6.18;2.00;;;16.80;74.70;;;;;;5068063;28;20463;-80
2022/05/01 13:06:50;;;;;;;4.80;1.95;;;16.70;72.90;;;;;;5069135;28;20040;-81
2022/05/01 13:09:16;;;;;;;2.42;1.60;;;16.70;72.10;;;;;;5049713;28;20123;-80
2022/05/01 13:11:58;;;;;;;3.15;2.05;;;16.70;72.50;;;;;;5068858;28;20044;-81
2022/05/01 13:14:33;;;;;;;1.98;1.55;;;16.90;69.20;;;;;;5050994;28;20134;-80
2022/05/01 13:17:09;;;;;;;3.25;1.80;;;17.20;70.40;;;;;;5066391;28;20037;-80
2022/05/01 13:19:35;;;;;;;2.42;1.67;;;17.50;68.00;;;;;;5068760;28;20090;-80
2022/05/01 13:22:01;;;;;;;5.32;1.90;;;17.90;69.30;;;;;;5067394;28;20044;-80
2022/05/01 13:24:39;;;;;;;3.42;1.58;;;18.40;67.50;;;;;;5067404;28;20411;-80
2022/05/01 13:27:10;;;;;;;2.33;1.63;;;18.60;64.20;;;;;;5068740;28;20399;-80
2022/05/01 13:29:38;;;;;;;2.97;2.13;;;18.90;63.50;;;;;;5065893;28;20123;-80
2022/05/01 13:32:09;;;;;;;2.35;1.80;;;18.90;62.70;;;;;;5068942;28;20484;-80